Terminal Aerodrome Forecast
Issued by NWS

Home | Current Version | Previous Version | Text Only | Print | Product List | Glossary Off
Versions: 1 2 3 4 5 6 7 8 9 10 11 12 13 14 15 16 17 18 19 20 21 22 23

000
FTUS42 KMHX 211611 AAG
TAFPGV
TAF AMD
KPGV 211611Z 2116/2212 10004KT P6SM OVC003
     FM211800 13005KT P6SM BKN007
     FM212100 14004KT 3SM -SHRA BR BKN007
     FM220100 14004KT 2SM -SHRA BR OVC003
     FM220500 20004KT 2SM BR OVC003 WS020/20040KT
      AMD LTD TO CLD VIS AND WIND=

USA.gov is the U.S. government's official web portal to all federal, state and local government web resources and services.